Time;durP1;ratioP1;P1;durP2;ratioP2;P2;SDS_P1;SDS_P2;PMS_P1;PMS_P2;Temp;Humidity;BMP_temperature;BMP_pressure;BME280_temperature;BME280_humidity;BME280_pressure;Samples;Min_cycle;Max_cycle;Signal;HPM_P1;HPM_P2
2021/06/26 00:02:13;;;;;;;9.07;8.27;;;;;;;;;;4975938;28;20447;-69
2021/06/26 00:04:42;;;;;;;9.27;8.60;;;;;;;;;;4976313;28;20495;-69
2021/06/26 00:07:09;;;;;;;9.27;8.53;;;;;;;;;;4975625;28;20825;-69
2021/06/26 00:09:36;;;;;;;9.30;8.50;;;;;;;;;;4976117;28;20453;-69
2021/06/26 00:12:04;;;;;;;8.70;8.10;;;;;;;;;;4975795;28;20454;-69
2021/06/26 00:14:32;;;;;;;9.43;8.73;;;;;;;;;;4975771;28;20461;-69
2021/06/26 00:17:00;;;;;;;9.20;8.50;;;;;;;;;;4975720;28;20450;-69
2021/06/26 00:19:27;;;;;;;9.50;8.80;;;;;;;;;;4975898;28;20520;-69
2021/06/26 00:21:54;;;;;;;8.70;8.00;;;;;;;;;;4975410;28;20477;-69
2021/06/26 00:24:21;;;;;;;9.30;8.63;;;;;;;;;;4975351;28;20824;-69
2021/06/26 00:26:49;;;;;;;8.87;8.27;;;;;;;;;;4975841;28;20447;-70
2021/06/26 00:29:17;;;;;;;9.50;8.67;;;;;;;;;;4975789;28;20482;-69
2021/06/26 00:31:45;;;;;;;9.27;8.63;;;;;;;;;;4975315;28;20509;-69
2021/06/26 00:34:12;;;;;;;9.63;8.93;;;;;;;;;;4975857;28;20879;-70
2021/06/26 00:36:40;;;;;;;9.90;9.20;;;;;;;;;;4975507;28;20451;-69
2021/06/26 00:39:07;;;;;;;10.33;9.53;;;;;;;;;;4975480;28;20574;-69
2021/06/26 00:41:34;;;;;;;11.43;10.67;;;;;;;;;;4975556;28;20473;-69
2021/06/26 00:44:02;;;;;;;10.90;10.20;;;;;;;;;;4975194;28;20488;-69
2021/06/26 00:46:29;;;;;;;10.27;9.53;;;;;;;;;;4975384;28;20452;-69
2021/06/26 00:48:57;;;;;;;12.03;10.83;;;;;;;;;;4975221;28;20475;-69
2021/06/26 00:51:25;;;;;;;10.80;10.00;;;;;;;;;;4974851;28;20481;-69
2021/06/26 00:53:52;;;;;;;12.03;11.10;;;;;;;;;;4974842;28;20935;-69
2021/06/26 00:56:19;;;;;;;11.77;10.63;;;;;;;;;;4975338;28;20454;-69
2021/06/26 00:58:47;;;;;;;10.80;9.97;;;;;;;;;;4974977;28;20483;-70
2021/06/26 01:01:14;;;;;;;11.17;10.37;;;;;;;;;;4975066;28;20458;-69
2021/06/26 01:03:42;;;;;;;10.30;9.60;;;;;;;;;;4974954;28;20505;-69
2021/06/26 01:06:11;;;;;;;11.80;11.00;;;;;;;;;;4974593;28;20498;-69
2021/06/26 01:08:38;;;;;;;11.63;10.63;;;;;;;;;;4975136;28;20522;-69
2021/06/26 01:11:05;;;;;;;11.77;10.97;;;;;;;;;;4974474;28;20969;-69
2021/06/26 01:13:32;;;;;;;11.73;10.93;;;;;;;;;;4974648;28;20443;-69
2021/06/26 01:15:59;;;;;;;11.83;11.03;;;;;;;;;;4974836;28;20878;-70
2021/06/26 01:18:27;;;;;;;12.73;11.73;;;;;;;;;;4974703;28;20838;-69
2021/06/26 01:20:54;;;;;;;12.50;11.60;;;;;;;;;;4974513;28;20463;-69
2021/06/26 01:23:24;;;;;;;12.60;11.70;;;;;;;;;;4974464;28;20971;-69
2021/06/26 01:25:51;;;;;;;13.53;12.43;;;;;;;;;;4975017;28;20451;-69
2021/06/26 01:28:18;;;;;;;13.10;12.20;;;;;;;;;;4974159;28;20481;-69
2021/06/26 01:30:45;;;;;;;13.17;12.27;;;;;;;;;;4974435;28;20951;-69
2021/06/26 01:33:12;;;;;;;13.70;12.80;;;;;;;;;;4974425;28;20451;-70
2021/06/26 01:35:40;;;;;;;15.37;14.23;;;;;;;;;;4974695;28;20462;-69
2021/06/26 01:38:07;;;;;;;13.73;12.73;;;;;;;;;;4974654;28;20482;-69
2021/06/26 01:40:35;;;;;;;14.50;13.30;;;;;;;;;;4974089;28;20820;-69
2021/06/26 01:43:03;;;;;;;13.67;12.67;;;;;;;;;;4974288;28;20455;-69
2021/06/26 01:45:30;;;;;;;13.63;12.73;;;;;;;;;;4974331;28;20766;-69
2021/06/26 01:47:57;;;;;;;14.80;13.67;;;;;;;;;;4974202;28;20990;-69
2021/06/26 01:50:26;;;;;;;14.13;13.03;;;;;;;;;;4973871;28;20447;-70
2021/06/26 01:52:53;;;;;;;14.00;13.00;;;;;;;;;;4974279;28;20460;-69
2021/06/26 01:55:21;;;;;;;13.93;12.97;;;;;;;;;;4974017;28;20458;-69
2021/06/26 01:57:50;;;;;;;14.37;13.37;;;;;;;;;;4997873;23;20479;-67
2021/06/26 02:00:18;;;;;;;15.30;14.13;;;;;;;;;;4969780;28;20467;-67
2021/06/26 02:02:45;;;;;;;14.20;13.27;;;;;;;;;;4973710;28;20463;-67
2021/06/26 02:05:13;;;;;;;13.60;12.60;;;;;;;;;;4954352;29;20484;-66
2021/06/26 02:07:40;;;;;;;15.93;14.73;;;;;;;;;;4954369;29;20452;-66
2021/06/26 02:10:08;;;;;;;15.83;14.73;;;;;;;;;;4954100;28;20475;-67
2021/06/26 02:12:35;;;;;;;16.60;15.37;;;;;;;;;;4954124;28;20458;-67
2021/06/26 02:15:04;;;;;;;16.07;14.97;;;;;;;;;;4954178;28;20455;-66
2021/06/26 02:17:31;;;;;;;15.87;14.70;;;;;;;;;;4954501;28;20452;-66
2021/06/26 02:19:58;;;;;;;16.10;14.80;;;;;;;;;;4954174;28;20450;-67
2021/06/26 02:22:25;;;;;;;16.47;15.37;;;;;;;;;;4953236;28;20455;-67
2021/06/26 02:24:52;;;;;;;15.33;14.33;;;;;;;;;;4954068;28;20480;-67
2021/06/26 02:27:19;;;;;;;16.33;15.13;;;;;;;;;;4954230;28;20452;-67
2021/06/26 02:29:47;;;;;;;16.30;15.10;;;;;;;;;;4953981;28;20469;-66
2021/06/26 02:32:15;;;;;;;13.90;13.10;;;;;;;;;;4953893;28;20451;-66
2021/06/26 02:34:42;;;;;;;16.57;15.43;;;;;;;;;;4953869;28;20450;-66
2021/06/26 02:37:09;;;;;;;16.60;15.40;;;;;;;;;;4953890;28;20808;-67
2021/06/26 02:39:36;;;;;;;16.20;15.20;;;;;;;;;;4954116;28;20472;-66
2021/06/26 02:42:04;;;;;;;16.27;15.07;;;;;;;;;;4953410;28;20974;-67
2021/06/26 02:44:31;;;;;;;14.60;13.60;;;;;;;;;;4953877;28;20484;-65
2021/06/26 02:46:58;;;;;;;15.67;14.53;;;;;;;;;;4953854;28;20444;-66
2021/06/26 02:49:26;;;;;;;16.93;15.73;;;;;;;;;;4953658;28;20486;-66
2021/06/26 02:51:53;;;;;;;16.23;15.00;;;;;;;;;;4953780;28;20452;-67
2021/06/26 02:54:21;;;;;;;16.87;15.67;;;;;;;;;;4953439;28;20830;-67
2021/06/26 02:56:48;;;;;;;17.07;16.00;;;;;;;;;;4953942;28;20458;-67
2021/06/26 02:59:15;;;;;;;16.13;15.03;;;;;;;;;;4953250;28;20980;-67
2021/06/26 03:01:42;;;;;;;15.33;14.33;;;;;;;;;;4953598;28;20553;-67
2021/06/26 03:04:09;;;;;;;16.63;15.53;;;;;;;;;;4953771;28;20480;-67
2021/06/26 03:06:37;;;;;;;15.53;14.53;;;;;;;;;;4953456;28;20458;-67
2021/06/26 03:09:05;;;;;;;16.77;15.50;;;;;;;;;;4953411;28;20480;-67
2021/06/26 03:11:32;;;;;;;18.33;17.10;;;;;;;;;;4953470;28;20456;-68
2021/06/26 03:13:59;;;;;;;17.40;16.20;;;;;;;;;;4953416;28;20952;-67
2021/06/26 03:16:26;;;;;;;16.00;15.00;;;;;;;;;;4953439;28;20452;-67
2021/06/26 03:18:53;;;;;;;17.73;16.53;;;;;;;;;;4953904;28;20472;-66
2021/06/26 03:21:20;;;;;;;17.17;16.07;;;;;;;;;;4953045;28;20962;-66
2021/06/26 03:23:49;;;;;;;15.87;14.87;;;;;;;;;;4953578;28;20460;-66
2021/06/26 03:26:16;;;;;;;17.00;15.90;;;;;;;;;;4953276;28;20448;-67
2021/06/26 03:28:44;;;;;;;17.63;16.33;;;;;;;;;;4953444;28;20482;-67
2021/06/26 03:31:12;;;;;;;16.37;15.27;;;;;;;;;;4953079;28;20484;-68
2021/06/26 03:33:39;;;;;;;15.33;14.23;;;;;;;;;;4954312;28;20491;-66
2021/06/26 03:36:07;;;;;;;16.43;15.27;;;;;;;;;;4956821;28;20906;-67
2021/06/26 03:38:34;;;;;;;17.10;15.73;;;;;;;;;;4957028;28;20996;-66
2021/06/26 03:41:02;;;;;;;15.67;14.57;;;;;;;;;;4957056;28;20535;-66
2021/06/26 03:43:30;;;;;;;16.80;15.40;;;;;;;;;;4957086;28;20448;-67
2021/06/26 03:45:57;;;;;;;16.30;15.20;;;;;;;;;;4956295;28;21015;-67
2021/06/26 03:48:24;;;;;;;15.77;14.73;;;;;;;;;;4956521;28;20468;-67
2021/06/26 03:50:51;;;;;;;15.57;14.57;;;;;;;;;;4956580;28;20452;-67
2021/06/26 03:53:19;;;;;;;15.63;14.63;;;;;;;;;;4957258;28;20463;-66
2021/06/26 03:55:52;;;;;;;15.80;14.73;;;;;;;;;;4956938;28;20936;-67
2021/06/26 03:58:21;;;;;;;16.23;15.23;;;;;;;;;;4956505;28;21018;-67
2021/06/26 04:00:48;;;;;;;16.57;15.57;;;;;;;;;;4956724;28;20458;-66
2021/06/26 04:03:16;;;;;;;16.50;15.40;;;;;;;;;;4956836;28;20452;-67
2021/06/26 04:05:43;;;;;;;17.20;15.93;;;;;;;;;;4956570;28;20488;-66
2021/06/26 04:08:10;;;;;;;15.70;14.70;;;;;;;;;;4956862;28;20474;-67
2021/06/26 04:10:38;;;;;;;16.90;15.80;;;;;;;;;;4956594;28;20476;-67
2021/06/26 04:13:05;;;;;;;16.50;15.20;;;;;;;;;;4956484;28;20973;-66
2021/06/26 04:15:34;;;;;;;16.70;15.70;;;;;;;;;;4956411;28;20939;-67
2021/06/26 04:18:01;;;;;;;17.30;16.20;;;;;;;;;;4956271;28;20858;-66
2021/06/26 04:20:28;;;;;;;17.50;16.40;;;;;;;;;;4955855;28;20943;-67
2021/06/26 04:22:55;;;;;;;16.63;15.57;;;;;;;;;;4956438;28;20463;-67
2021/06/26 04:25:22;;;;;;;16.13;15.03;;;;;;;;;;4956413;28;20479;-67
2021/06/26 04:27:49;;;;;;;16.40;15.30;;;;;;;;;;4956063;28;20486;-66
2021/06/26 04:30:17;;;;;;;15.77;14.77;;;;;;;;;;4955709;28;21027;-66
2021/06/26 04:32:45;;;;;;;16.20;15.20;;;;;;;;;;4956448;28;20488;-67
2021/06/26 04:35:14;;;;;;;15.93;14.93;;;;;;;;;;4955864;28;20952;-66
2021/06/26 04:37:42;;;;;;;16.43;15.23;;;;;;;;;;4956276;28;20460;-66
2021/06/26 04:40:10;;;;;;;17.33;16.23;;;;;;;;;;4956231;28;20456;-69
2021/06/26 04:42:37;;;;;;;15.37;14.47;;;;;;;;;;4955898;28;20456;-66
2021/06/26 04:45:04;;;;;;;15.70;14.70;;;;;;;;;;4955473;28;20491;-68
2021/06/26 04:47:31;;;;;;;16.37;15.37;;;;;;;;;;4955984;28;20462;-67
2021/06/26 04:50:00;;;;;;;15.27;14.10;;;;;;;;;;4956046;28;20452;-66
2021/06/26 04:52:27;;;;;;;15.83;14.70;;;;;;;;;;4955586;28;20452;-67
2021/06/26 04:54:54;;;;;;;15.30;14.40;;;;;;;;;;4956158;28;20483;-66
2021/06/26 04:57:21;;;;;;;15.47;14.57;;;;;;;;;;4955565;28;20453;-68
2021/06/26 04:59:48;;;;;;;15.43;14.53;;;;;;;;;;4955546;28;20487;-67
2021/06/26 05:02:15;;;;;;;15.80;14.80;;;;;;;;;;4955436;28;20455;-68
2021/06/26 05:04:42;;;;;;;16.33;15.33;;;;;;;;;;4955942;28;20791;-67
2021/06/26 05:07:11;;;;;;;15.83;14.83;;;;;;;;;;4955471;28;20539;-68
2021/06/26 05:09:38;;;;;;;15.13;14.10;;;;;;;;;;4955899;28;20472;-68
2021/06/26 05:12:06;;;;;;;15.47;14.57;;;;;;;;;;4955619;28;20470;-68
2021/06/26 05:14:33;;;;;;;15.30;14.40;;;;;;;;;;4955643;28;20452;-67
2021/06/26 05:17:00;;;;;;;14.50;13.60;;;;;;;;;;4955880;28;20964;-66
2021/06/26 05:19:27;;;;;;;14.73;13.67;;;;;;;;;;4955997;28;20472;-66
2021/06/26 05:21:54;;;;;;;13.00;12.20;;;;;;;;;;4955853;28;20968;-67
2021/06/26 05:24:23;;;;;;;13.37;12.47;;;;;;;;;;4958102;28;20448;-67
2021/06/26 05:26:50;;;;;;;12.37;11.60;;;;;;;;;;4957083;28;20484;-67
2021/06/26 05:29:17;;;;;;;12.70;11.90;;;;;;;;;;4956707;28;20503;-67
2021/06/26 05:31:44;;;;;;;12.23;11.50;;;;;;;;;;4956292;28;20459;-67
2021/06/26 05:34:11;;;;;;;12.00;11.10;;;;;;;;;;4955497;28;20463;-66
2021/06/26 05:36:39;;;;;;;11.57;10.77;;;;;;;;;;4957019;28;20448;-68
2021/06/26 05:39:06;;;;;;;12.83;11.93;;;;;;;;;;4955031;28;20543;-68
2021/06/26 05:41:34;;;;;;;10.90;10.20;;;;;;;;;;4955042;28;20831;-69
2021/06/26 05:44:02;;;;;;;11.63;10.93;;;;;;;;;;4955211;28;20452;-69
2021/06/26 05:46:29;;;;;;;12.33;11.17;;;;;;;;;;4955659;28;20488;-69
2021/06/26 05:48:56;;;;;;;12.33;11.53;;;;;;;;;;4955714;28;20850;-69
2021/06/26 05:51:23;;;;;;;12.53;11.73;;;;;;;;;;4955497;28;20457;-69
2021/06/26 05:53:50;;;;;;;13.37;12.47;;;;;;;;;;4955116;28;20531;-69
2021/06/26 05:56:17;;;;;;;12.10;11.30;;;;;;;;;;4954875;28;20451;-69
2021/06/26 05:58:46;;;;;;;12.20;11.40;;;;;;;;;;4953727;28;20485;-69
2021/06/26 06:01:13;;;;;;;11.50;10.70;;;;;;;;;;4954505;28;20841;-69
2021/06/26 06:03:40;;;;;;;10.80;10.00;;;;;;;;;;4954741;28;20539;-68
2021/06/26 06:06:07;;;;;;;11.17;10.33;;;;;;;;;;4954441;28;21024;-69
2021/06/26 06:08:35;;;;;;;9.90;9.30;;;;;;;;;;4954650;28;20822;-69
2021/06/26 06:11:02;;;;;;;9.37;8.67;;;;;;;;;;4954889;28;20459;-69
2021/06/26 06:13:29;;;;;;;10.03;9.20;;;;;;;;;;4954835;28;20445;-69
2021/06/26 06:15:57;;;;;;;8.97;8.27;;;;;;;;;;4954826;28;20444;-67
2021/06/26 06:18:24;;;;;;;8.43;7.90;;;;;;;;;;4954044;28;20824;-69
2021/06/26 06:20:51;;;;;;;7.50;6.90;;;;;;;;;;4955119;28;20459;-69
2021/06/26 06:23:19;;;;;;;6.90;6.40;;;;;;;;;;4955045;28;20539;-69
2021/06/26 06:25:46;;;;;;;7.80;7.10;;;;;;;;;;4954820;28;20488;-70
2021/06/26 06:28:13;;;;;;;6.97;6.47;;;;;;;;;;4954806;28;20482;-69
2021/06/26 06:30:40;;;;;;;7.80;7.10;;;;;;;;;;4955143;28;20821;-70
2021/06/26 06:33:08;;;;;;;6.97;6.47;;;;;;;;;;4954889;28;20456;-69
2021/06/26 06:35:36;;;;;;;6.77;6.27;;;;;;;;;;4954908;28;20944;-69
2021/06/26 06:38:03;;;;;;;6.70;6.10;;;;;;;;;;4954944;28;20559;-69
2021/06/26 06:40:31;;;;;;;7.10;6.60;;;;;;;;;;4955152;28;20452;-69
2021/06/26 06:42:58;;;;;;;5.90;5.40;;;;;;;;;;4955501;28;21003;-70
2021/06/26 06:45:25;;;;;;;7.37;6.87;;;;;;;;;;4954776;28;20488;-68
2021/06/26 06:47:52;;;;;;;7.60;7.00;;;;;;;;;;4954913;28;20454;-69
2021/06/26 06:50:21;;;;;;;6.10;5.70;;;;;;;;;;4955388;28;20448;-69
2021/06/26 06:52:48;;;;;;;6.70;6.10;;;;;;;;;;4955629;28;20456;-70
2021/06/26 06:55:15;;;;;;;5.80;5.40;;;;;;;;;;4955176;28;20471;-67
2021/06/26 06:57:42;;;;;;;5.80;5.40;;;;;;;;;;4954741;28;20964;-70
2021/06/26 07:00:10;;;;;;;6.73;6.17;;;;;;;;;;4953742;28;20466;-65
2021/06/26 07:02:37;;;;;;;6.80;6.30;;;;;;;;;;4954146;28;20492;-68
2021/06/26 07:05:05;;;;;;;7.80;7.10;;;;;;;;;;4954207;28;20455;-69
2021/06/26 07:07:33;;;;;;;8.87;8.10;;;;;;;;;;4955408;28;20456;-69
2021/06/26 07:10:00;;;;;;;11.37;10.40;;;;;;;;;;4954437;28;20448;-66
2021/06/26 07:12:28;;;;;;;13.33;12.23;;;;;;;;;;4953725;28;20456;-68
2021/06/26 07:14:55;;;;;;;10.20;9.50;;;;;;;;;;4953386;28;20539;-67
2021/06/26 07:17:22;;;;;;;11.30;10.37;;;;;;;;;;4953678;28;20456;-69
2021/06/26 07:19:49;;;;;;;10.97;10.20;;;;;;;;;;4954078;28;20472;-70
2021/06/26 07:22:16;;;;;;;11.70;10.60;;;;;;;;;;4953998;28;20458;-69
2021/06/26 07:24:45;;;;;;;12.53;11.50;;;;;;;;;;4954028;28;20482;-70
2021/06/26 07:27:12;;;;;;;11.43;10.43;;;;;;;;;;4953076;28;20484;-69
2021/06/26 07:29:39;;;;;;;10.70;9.90;;;;;;;;;;4954067;28;20509;-70
2021/06/26 07:32:06;;;;;;;10.30;9.30;;;;;;;;;;4953849;28;20448;-69
2021/06/26 07:34:34;;;;;;;11.70;10.70;;;;;;;;;;4953590;28;20818;-69
2021/06/26 07:37:01;;;;;;;11.00;10.10;;;;;;;;;;4953516;28;20800;-70
2021/06/26 07:39:28;;;;;;;10.87;9.87;;;;;;;;;;4953922;28;20478;-67
2021/06/26 07:41:56;;;;;;;12.07;11.07;;;;;;;;;;4953775;28;20456;-69
2021/06/26 07:44:24;;;;;;;16.13;14.67;;;;;;;;;;4953570;28;20544;-70
2021/06/26 07:46:52;;;;;;;14.43;13.33;;;;;;;;;;4953635;28;20488;-69
2021/06/26 07:49:19;;;;;;;15.37;14.10;;;;;;;;;;4953464;28;20472;-70
2021/06/26 07:51:46;;;;;;;13.00;12.00;;;;;;;;;;4953384;28;20452;-70
2021/06/26 07:54:16;;;;;;;12.20;11.20;;;;;;;;;;4953201;28;20460;-70
2021/06/26 07:56:43;;;;;;;12.83;11.60;;;;;;;;;;4953221;28;20958;-70
2021/06/26 07:59:11;;;;;;;12.07;11.07;;;;;;;;;;5006076;23;21023;-66
2021/06/26 08:01:38;;;;;;;12.20;11.00;;;;;;;;;;4968371;28;20455;-68
2021/06/26 08:04:06;;;;;;;10.70;9.80;;;;;;;;;;4964302;28;20938;-66
2021/06/26 08:06:33;;;;;;;11.90;11.00;;;;;;;;;;4972252;28;20486;-67
2021/06/26 08:09:00;;;;;;;11.67;10.57;;;;;;;;;;4972718;28;20479;-66
2021/06/26 08:11:27;;;;;;;14.83;13.63;;;;;;;;;;4972967;28;20455;-66
2021/06/26 08:13:56;;;;;;;13.30;12.30;;;;;;;;;;4972578;28;20489;-65
2021/06/26 08:16:25;;;;;;;12.47;11.40;;;;;;;;;;4973135;28;20514;-65
2021/06/26 08:18:52;;;;;;;12.50;11.50;;;;;;;;;;4972420;28;21008;-66
2021/06/26 08:21:19;;;;;;;10.20;9.30;;;;;;;;;;4973901;28;20462;-66
2021/06/26 08:23:47;;;;;;;11.00;10.20;;;;;;;;;;4976088;28;20465;-65
2021/06/26 08:26:14;;;;;;;10.93;10.13;;;;;;;;;;4976027;28;20860;-66
2021/06/26 08:28:41;;;;;;;10.37;9.57;;;;;;;;;;4975507;28;20510;-66
2021/06/26 08:31:08;;;;;;;10.37;9.53;;;;;;;;;;4975672;28;20537;-66
2021/06/26 08:33:36;;;;;;;11.03;9.70;;;;;;;;;;4975622;28;20450;-67
2021/06/26 08:36:04;;;;;;;13.00;12.00;;;;;;;;;;4975682;28;20447;-66
2021/06/26 08:38:31;;;;;;;10.50;9.60;;;;;;;;;;4975858;28;20562;-66
2021/06/26 08:40:58;;;;;;;11.33;10.53;;;;;;;;;;4975362;28;20830;-66
2021/06/26 08:43:27;;;;;;;12.60;11.67;;;;;;;;;;4975441;28;20451;-66
2021/06/26 08:45:54;;;;;;;13.43;12.17;;;;;;;;;;4975484;28;20490;-65
2021/06/26 08:48:22;;;;;;;11.83;10.77;;;;;;;;;;4975124;28;20459;-66
2021/06/26 08:50:50;;;;;;;12.30;11.23;;;;;;;;;;4974907;28;20955;-66
2021/06/26 08:53:17;;;;;;;11.07;10.17;;;;;;;;;;4975534;28;20834;-66
2021/06/26 08:55:45;;;;;;;11.90;11.00;;;;;;;;;;4975645;28;20458;-66
2021/06/26 08:58:13;;;;;;;12.17;11.07;;;;;;;;;;4974994;28;20458;-66
2021/06/26 09:00:40;;;;;;;13.57;12.30;;;;;;;;;;4974696;28;20463;-66
2021/06/26 09:03:08;;;;;;;12.80;11.90;;;;;;;;;;4974965;28;20451;-65
2021/06/26 09:05:35;;;;;;;12.73;11.70;;;;;;;;;;4975450;28;20455;-65
2021/06/26 09:08:13;;;;;;;13.10;12.20;;;;;;;;;;4975225;28;20443;-65
2021/06/26 09:10:42;;;;;;;12.53;11.47;;;;;;;;;;4974950;28;20447;-66
2021/06/26 09:13:21;;;;;;;14.50;12.40;;;;;;;;;;4975500;28;20467;-65
2021/06/26 09:15:48;;;;;;;13.10;12.10;;;;;;;;;;4975609;28;20461;-65
2021/06/26 09:18:16;;;;;;;14.90;13.70;;;;;;;;;;4975320;28;20451;-65
2021/06/26 09:20:46;;;;;;;14.10;13.00;;;;;;;;;;4975245;28;20542;-66
2021/06/26 09:23:36;;;;;;;13.47;12.37;;;;;;;;;;4975181;28;20518;-65
2021/06/26 09:26:06;;;;;;;13.67;12.37;;;;;;;;;;4971345;28;20487;-65
2021/06/26 09:28:33;;;;;;;13.97;12.83;;;;;;;;;;4974817;28;20493;-66
2021/06/26 09:31:00;;;;;;;13.70;12.50;;;;;;;;;;4974825;28;20454;-65
2021/06/26 09:33:28;;;;;;;13.27;12.27;;;;;;;;;;4974460;28;20447;-66
2021/06/26 09:36:07;;;;;;;11.80;10.80;;;;;;;;;;4975171;28;20447;-66
2021/06/26 09:38:34;;;;;;;12.87;11.87;;;;;;;;;;4974426;28;21054;-65
2021/06/26 09:41:14;;;;;;;13.70;12.80;;;;;;;;;;4974733;28;20452;-65
2021/06/26 09:43:41;;;;;;;14.47;12.50;;;;;;;;;;4974377;28;20514;-66
2021/06/26 09:46:11;;;;;;;13.40;12.40;;;;;;;;;;4974501;28;21006;-65
2021/06/26 09:48:52;;;;;;;14.40;13.17;;;;;;;;;;4974417;28;20978;-66
2021/06/26 09:51:23;;;;;;;15.07;13.97;;;;;;;;;;4974277;28;20435;-66
2021/06/26 09:54:00;;;;;;;13.90;12.80;;;;;;;;;;4974559;28;20519;-66
2021/06/26 09:56:38;;;;;;;13.10;12.10;;;;;;;;;;4974323;28;20538;-66
2021/06/26 09:59:06;;;;;;;14.17;12.97;;;;;;;;;;4974341;28;20483;-66
2021/06/26 10:01:35;;;;;;;11.27;10.37;;;;;;;;;;4973644;28;20462;-67
2021/06/26 10:04:02;;;;;;;14.13;13.03;;;;;;;;;;4974152;28;20448;-65
2021/06/26 10:06:30;;;;;;;13.77;12.67;;;;;;;;;;4974072;28;20483;-66
2021/06/26 10:08:57;;;;;;;12.97;11.97;;;;;;;;;;4974134;28;20849;-66
2021/06/26 10:11:24;;;;;;;12.67;11.50;;;;;;;;;;4973765;28;20828;-66
2021/06/26 10:13:53;;;;;;;11.30;10.30;;;;;;;;;;4973828;28;20833;-67
2021/06/26 10:16:20;;;;;;;11.50;10.60;;;;;;;;;;4974730;28;20451;-66
2021/06/26 10:18:48;;;;;;;13.20;12.10;;;;;;;;;;4974265;28;20558;-67
2021/06/26 10:21:15;;;;;;;12.87;11.87;;;;;;;;;;4974063;28;20458;-67
2021/06/26 10:23:42;;;;;;;11.00;10.10;;;;;;;;;;4973890;28;20558;-66
2021/06/26 10:26:10;;;;;;;12.47;11.47;;;;;;;;;;4973882;28;20819;-67
2021/06/26 10:28:47;;;;;;;12.97;11.80;;;;;;;;;;4974071;28;20562;-67
2021/06/26 10:31:16;;;;;;;12.10;10.80;;;;;;;;;;4974264;28;20447;-67
2021/06/26 10:33:46;;;;;;;13.10;12.10;;;;;;;;;;4973866;28;20447;-67
2021/06/26 10:36:13;;;;;;;11.93;10.93;;;;;;;;;;4974188;28;20534;-67
2021/06/26 10:38:41;;;;;;;12.27;11.27;;;;;;;;;;4973990;28;21028;-66
2021/06/26 10:41:17;;;;;;;12.70;11.70;;;;;;;;;;4973790;28;20452;-67
2021/06/26 10:43:54;;;;;;;13.67;12.57;;;;;;;;;;4973415;28;20436;-67
2021/06/26 10:46:22;;;;;;;12.37;11.50;;;;;;;;;;4973917;28;20436;-67
2021/06/26 10:48:56;;;;;;;13.60;12.57;;;;;;;;;;4974332;28;20502;-67
2021/06/26 10:51:31;;;;;;;11.83;10.83;;;;;;;;;;4973737;28;20530;-67
2021/06/26 10:54:09;;;;;;;11.73;10.80;;;;;;;;;;4973928;28;20454;-67
2021/06/26 10:56:36;;;;;;;13.10;12.10;;;;;;;;;;4974189;28;20456;-67
2021/06/26 10:59:09;;;;;;;14.10;13.00;;;;;;;;;;4973647;28;20573;-66
2021/06/26 11:01:38;;;;;;;15.37;13.77;;;;;;;;;;4973229;28;20454;-67
2021/06/26 11:04:08;;;;;;;13.87;12.77;;;;;;;;;;4973715;28;20454;-67
2021/06/26 11:06:36;;;;;;;12.83;11.73;;;;;;;;;;4973845;28;20468;-67
2021/06/26 11:09:05;;;;;;;15.10;11.90;;;;;;;;;;4973488;28;20493;-67
2021/06/26 11:11:34;;;;;;;11.70;10.60;;;;;;;;;;4973047;28;21014;-67
2021/06/26 11:14:12;;;;;;;10.63;9.63;;;;;;;;;;4973489;28;20447;-67
2021/06/26 11:16:42;;;;;;;12.73;11.63;;;;;;;;;;4972955;28;20457;-67
2021/06/26 11:19:09;;;;;;;11.77;10.80;;;;;;;;;;4972990;28;21012;-67
2021/06/26 11:21:43;;;;;;;10.30;9.60;;;;;;;;;;4973268;28;20915;-67
2021/06/26 11:24:11;;;;;;;12.50;11.40;;;;;;;;;;4973238;28;20457;-67
2021/06/26 11:26:53;;;;;;;12.23;11.27;;;;;;;;;;4973413;28;20565;-67
2021/06/26 11:29:24;;;;;;;10.37;9.47;;;;;;;;;;4973605;28;20475;-67
2021/06/26 11:31:52;;;;;;;13.03;12.13;;;;;;;;;;4973536;28;20771;-67
2021/06/26 11:34:19;;;;;;;12.60;11.60;;;;;;;;;;4973537;28;20451;-67
2021/06/26 11:36:54;;;;;;;12.00;10.73;;;;;;;;;;4973536;28;20534;-67
2021/06/26 11:39:22;;;;;;;11.63;10.73;;;;;;;;;;4973237;28;20477;-66
2021/06/26 11:41:49;;;;;;;12.27;11.30;;;;;;;;;;4973194;28;20459;-67
2021/06/26 11:44:16;;;;;;;11.47;10.60;;;;;;;;;;4973462;28;20462;-67
2021/06/26 11:46:43;;;;;;;10.27;9.33;;;;;;;;;;4973239;28;20489;-67
2021/06/26 11:49:12;;;;;;;10.53;9.63;;;;;;;;;;4973323;28;20503;-67
2021/06/26 11:51:40;;;;;;;11.23;10.33;;;;;;;;;;4973353;28;20462;-67
2021/06/26 11:54:07;;;;;;;12.30;11.20;;;;;;;;;;4973632;28;20463;-67
2021/06/26 11:56:34;;;;;;;11.80;10.80;;;;;;;;;;4977523;28;20458;-67
2021/06/26 11:59:02;;;;;;;11.30;10.40;;;;;;;;;;4976853;28;20581;-67
2021/06/26 12:01:31;;;;;;;11.80;10.80;;;;;;;;;;4977052;28;20828;-67
2021/06/26 12:04:02;;;;;;;12.07;11.13;;;;;;;;;;4977068;28;20459;-67
2021/06/26 12:06:33;;;;;;;10.20;9.40;;;;;;;;;;4976268;28;20950;-67
2021/06/26 12:09:00;;;;;;;9.90;9.10;;;;;;;;;;4976874;28;20470;-67
2021/06/26 12:11:29;;;;;;;10.63;9.80;;;;;;;;;;4976431;28;20935;-67
2021/06/26 12:13:57;;;;;;;9.90;9.20;;;;;;;;;;4977158;28;20447;-67
2021/06/26 12:16:25;;;;;;;10.00;9.23;;;;;;;;;;4977488;28;20469;-67
2021/06/26 12:18:53;;;;;;;11.20;9.40;;;;;;;;;;4976785;28;20471;-67
2021/06/26 12:21:20;;;;;;;8.80;7.77;;;;;;;;;;4976434;28;20456;-67
2021/06/26 12:23:50;;;;;;;10.30;9.30;;;;;;;;;;4977181;28;20455;-67
2021/06/26 12:26:17;;;;;;;10.50;9.60;;;;;;;;;;4977427;28;20461;-67
2021/06/26 12:28:45;;;;;;;12.27;11.03;;;;;;;;;;4976275;28;20497;-67
2021/06/26 12:31:12;;;;;;;20.10;9.23;;;;;;;;;;4976498;28;20539;-67
2021/06/26 12:33:39;;;;;;;11.03;10.03;;;;;;;;;;4977032;28;20455;-67
2021/06/26 12:36:13;;;;;;;10.47;9.57;;;;;;;;;;4976533;28;20517;-67
2021/06/26 12:38:41;;;;;;;10.43;9.63;;;;;;;;;;4976186;28;20463;-67
2021/06/26 12:41:19;;;;;;;9.63;8.93;;;;;;;;;;4976095;28;20472;-67
2021/06/26 12:43:46;;;;;;;8.90;8.30;;;;;;;;;;4976459;28;20522;-67
2021/06/26 12:46:13;;;;;;;9.80;8.80;;;;;;;;;;4976515;28;20447;-67
2021/06/26 12:48:43;;;;;;;9.03;8.40;;;;;;;;;;4976491;28;20490;-66
2021/06/26 12:51:12;;;;;;;8.20;7.50;;;;;;;;;;4976578;28;20463;-67
2021/06/26 12:53:39;;;;;;;8.93;8.03;;;;;;;;;;4976927;28;20628;-67
2021/06/26 12:56:09;;;;;;;8.40;7.70;;;;;;;;;;4977139;28;20526;-67
2021/06/26 12:58:38;;;;;;;8.90;8.20;;;;;;;;;;4977558;28;20471;-67
2021/06/26 13:01:05;;;;;;;8.23;7.63;;;;;;;;;;4978449;28;20463;-67
2021/06/26 13:03:33;;;;;;;8.10;7.50;;;;;;;;;;4979814;28;20543;-67
2021/06/26 13:06:09;;;;;;;9.27;8.67;;;;;;;;;;4977099;28;20490;-67
2021/06/26 13:08:49;;;;;;;7.90;7.40;;;;;;;;;;4978609;28;20497;-67
2021/06/26 13:11:17;;;;;;;8.17;7.50;;;;;;;;;;4980060;28;20459;-67
2021/06/26 13:13:45;;;;;;;8.23;7.63;;;;;;;;;;4988314;28;20459;-68
2021/06/26 13:16:12;;;;;;;8.63;7.93;;;;;;;;;;4990066;28;20459;-68
2021/06/26 13:18:39;;;;;;;8.70;8.00;;;;;;;;;;4988973;28;20528;-67
2021/06/26 13:21:13;;;;;;;7.70;7.10;;;;;;;;;;4989211;28;20519;-68
2021/06/26 13:23:41;;;;;;;7.27;6.67;;;;;;;;;;4991575;28;20503;-68
2021/06/26 13:26:08;;;;;;;7.97;7.37;;;;;;;;;;4990569;28;20447;-67
2021/06/26 13:28:35;;;;;;;7.70;7.10;;;;;;;;;;4981803;28;20995;-66
2021/06/26 13:31:04;;;;;;;6.47;5.97;;;;;;;;;;4978346;28;20550;-67
2021/06/26 13:33:31;;;;;;;7.50;6.90;;;;;;;;;;4977970;28;20904;-67
2021/06/26 13:35:58;;;;;;;8.33;7.73;;;;;;;;;;4977325;28;20457;-68
2021/06/26 13:38:25;;;;;;;6.80;6.10;;;;;;;;;;4978208;28;20526;-66
2021/06/26 13:40:52;;;;;;;7.70;7.10;;;;;;;;;;4978256;28;20456;-68
2021/06/26 13:43:20;;;;;;;8.10;7.50;;;;;;;;;;4977737;28;20826;-67
2021/06/26 13:45:47;;;;;;;9.20;8.50;;;;;;;;;;4978625;28;21018;-67
2021/06/26 13:48:16;;;;;;;8.80;8.00;;;;;;;;;;4979567;28;20493;-68
2021/06/26 13:50:43;;;;;;;8.40;7.70;;;;;;;;;;4979816;28;20454;-67
2021/06/26 13:53:10;;;;;;;8.60;7.90;;;;;;;;;;4991016;28;20519;-67
2021/06/26 13:55:37;;;;;;;7.10;6.60;;;;;;;;;;4993343;28;20484;-68
2021/06/26 13:58:04;;;;;;;9.30;8.60;;;;;;;;;;4994330;28;20443;-68
2021/06/26 14:00:32;;;;;;;8.30;7.60;;;;;;;;;;5003014;23;20509;-66
2021/06/26 14:02:59;;;;;;;8.70;8.00;;;;;;;;;;4990447;28;20442;-67
2021/06/26 14:05:27;;;;;;;8.23;7.63;;;;;;;;;;4973856;28;20443;-67
2021/06/26 14:07:54;;;;;;;9.10;8.37;;;;;;;;;;4973268;28;21022;-66
2021/06/26 14:10:22;;;;;;;10.17;9.30;;;;;;;;;;4973592;28;20479;-66
2021/06/26 14:12:49;;;;;;;8.50;7.90;;;;;;;;;;4973801;28;20447;-66
2021/06/26 14:15:16;;;;;;;9.00;8.20;;;;;;;;;;4973641;28;20451;-66
2021/06/26 14:17:43;;;;;;;9.23;8.40;;;;;;;;;;4973026;28;20454;-67
2021/06/26 14:20:11;;;;;;;8.70;7.97;;;;;;;;;;4973059;28;20478;-68
2021/06/26 14:22:39;;;;;;;10.10;9.30;;;;;;;;;;4973626;28;20450;-67
2021/06/26 14:25:07;;;;;;;10.30;9.43;;;;;;;;;;4973681;28;20810;-66
2021/06/26 14:27:35;;;;;;;8.80;8.20;;;;;;;;;;4973571;28;20490;-66
2021/06/26 14:30:02;;;;;;;9.37;8.60;;;;;;;;;;4973121;28;20843;-67